Time;durP1;ratioP1;P1;durP2;ratioP2;P2;SDS_P1;SDS_P2;PMS_P1;PMS_P2;Temp;Humidity;BMP_temperature;BMP_pressure;BME280_temperature;BME280_humidity;BME280_pressure;Samples;Min_cycle;Max_cycle;Signal;HPM_P1;HPM_P2
2022/07/27 00:00:30;;;;;;;3.30;3.00;;;;;;;20.83;55.02;156718.69;5089490;28;20506;-86
2022/07/27 00:02:57;;;;;;;3.10;2.80;;;;;;;20.80;55.84;156710.84;5089867;28;20540;-86
2022/07/27 00:05:24;;;;;;;3.30;3.00;;;;;;;20.75;56.47;156697.81;5070168;28;21126;-85
2022/07/27 00:07:50;;;;;;;3.90;3.50;;;;;;;20.68;56.55;156679.56;5084653;28;20444;-86
2022/07/27 00:10:17;;;;;;;3.87;2.80;;;;;;;20.63;56.45;156669.09;5071165;28;20932;-85
2022/07/27 00:12:45;;;;;;;4.10;3.40;;;;;;;20.68;56.55;156679.56;5088607;28;20515;-86
2022/07/27 00:15:12;;;;;;;3.27;2.97;;;;;;;20.68;56.87;156680.84;5090366;28;20444;-85
2022/07/27 00:17:39;;;;;;;3.37;3.07;;;;;;;20.60;57.30;156659.94;5089685;28;20459;-86
2022/07/27 00:20:07;;;;;;;4.80;3.43;;;;;;;20.59;57.30;156658.69;5072881;28;20453;-85
2022/07/27 00:22:34;;;;;;;4.53;3.47;;;;;;;20.58;57.34;156656.06;5089338;28;20539;-85
2022/07/27 00:25:00;;;;;;;3.60;3.20;;;;;;;20.56;57.69;156650.84;5069038;28;20528;-86
2022/07/27 00:27:27;;;;;;;4.03;3.67;;;;;;;20.51;58.39;156636.50;5081868;28;20568;-85
2022/07/27 00:29:55;;;;;;;4.03;3.30;;;;;;;20.47;58.33;156627.34;5071575;28;20459;-85
2022/07/27 00:32:22;;;;;;;3.90;3.43;;;;;;;20.44;58.14;156619.53;5087535;28;20476;-86
2022/07/27 00:34:49;;;;;;;6.20;3.53;;;;;;;20.38;58.63;156603.91;5090017;28;20554;-85
2022/07/27 00:37:15;;;;;;;4.17;3.77;;;;;;;20.39;58.55;156605.16;5070293;28;20459;-85
2022/07/27 00:39:43;;;;;;;3.60;3.30;;;;;;;20.39;58.61;156605.16;5071332;28;20485;-86
2022/07/27 00:42:09;;;;;;;4.00;3.60;;;;;;;20.39;58.62;156606.47;5071627;28;20477;-85
2022/07/27 00:44:36;;;;;;;5.27;4.80;;;;;;;20.39;58.51;156606.47;5071507;28;20852;-85
2022/07/27 00:47:04;;;;;;;5.33;3.90;;;;;;;20.39;58.64;156606.47;5072411;28;20456;-85
2022/07/27 00:49:31;;;;;;;5.53;4.07;;;;;;;20.39;58.90;156606.47;5090016;28;20457;-85
2022/07/27 00:51:58;;;;;;;3.83;3.53;;;;;;;20.47;58.88;156627.34;5072403;28;21014;-85
2022/07/27 00:54:25;;;;;;;3.90;3.40;;;;;;;20.39;59.11;156606.47;5088688;28;20477;-85
2022/07/27 00:56:52;;;;;;;5.93;3.67;;;;;;;20.31;59.53;156584.31;5088465;28;20481;-85
2022/07/27 00:59:19;;;;;;;4.00;3.70;;;;;;;20.23;59.70;156563.38;5078049;28;20858;-86
2022/07/27 01:01:46;;;;;;;4.20;3.80;;;;;;;20.22;59.83;156562.13;5089335;28;20846;-85
2022/07/27 01:04:14;;;;;;;4.83;3.43;;;;;;;20.15;60.02;156543.81;5055106;28;20453;-85
2022/07/27 01:06:41;;;;;;;4.40;4.00;;;;;;;20.15;60.03;156542.56;5090259;28;20456;-85
2022/07/27 01:11:51;;;;;;;4.20;3.80;;;;;;;20.12;59.70;156536.00;5070448;28;20456;-85
2022/07/27 01:14:19;;;;;;;7.60;4.00;;;;;;;20.09;60.22;156528.22;5071791;28;20472;-85
2022/07/27 01:16:46;;;;;;;4.40;4.00;;;;;;;20.06;60.36;156520.38;5054158;28;20456;-85
2022/07/27 01:19:15;;;;;;;6.43;4.00;;;;;;;20.05;60.13;156519.06;5071233;28;20532;-85
2022/07/27 01:21:43;;;;;;;5.13;3.83;;;;;;;20.20;60.08;156556.84;5089778;28;20944;-85
2022/07/27 01:24:10;;;;;;;4.50;4.10;;;;;;;20.06;60.57;156520.38;5089974;28;20981;-85
2022/07/27 01:26:38;;;;;;;4.13;3.83;;;;;;;20.01;60.51;156507.34;5088748;28;20588;-85
2022/07/27 01:29:05;;;;;;;4.40;4.00;;;;;;;19.96;61.41;156494.31;5073017;28;20453;-85
2022/07/27 01:31:32;;;;;;;3.93;3.63;;;;;;;19.96;61.15;156494.31;5091601;28;20445;-85
2022/07/27 01:33:59;;;;;;;4.27;3.97;;;;;;;19.95;61.23;156491.69;5088272;28;21002;-85
2022/07/27 01:36:25;;;;;;;4.83;4.43;;;;;;;19.83;61.50;156461.66;5071389;28;20502;-85
2022/07/27 01:38:54;;;;;;;4.93;3.97;;;;;;;19.79;61.75;156449.94;5089766;28;20455;-85
2022/07/27 01:41:20;;;;;;;5.20;4.20;;;;;;;19.75;61.83;156440.81;5090222;28;20479;-86
2022/07/27 01:43:47;;;;;;;6.70;4.57;;;;;;;19.77;61.78;156446.06;5074014;28;20484;-85
2022/07/27 01:46:14;;;;;;;4.47;4.10;;;;;;;19.73;61.96;156434.28;5058417;28;20682;-85
2022/07/27 01:48:41;;;;;;;4.50;4.10;;;;;;;19.70;62.16;156427.78;5090392;28;21053;-85
2022/07/27 01:51:08;;;;;;;5.90;4.20;;;;;;;19.62;62.20;156405.66;5075112;28;20453;-85
2022/07/27 01:53:34;;;;;;;4.90;4.33;;;;;;;19.56;62.17;156391.31;5075110;28;20966;-85
2022/07/27 01:56:02;;;;;;;4.43;4.03;;;;;;;19.50;62.35;156375.66;5092553;28;20453;-85
2022/07/27 01:58:29;;;;;;;5.77;5.17;;;;;;;19.47;62.35;156367.81;5073272;28;20848;-76
2022/07/27 02:00:56;;;;;;;5.00;4.43;;;;;;;19.44;62.77;156361.31;5074960;28;20544;-75
2022/07/27 02:03:23;;;;;;;6.60;4.50;;;;;;;19.44;62.91;156361.31;5091819;28;20462;-75
2022/07/27 02:05:49;;;;;;;4.57;4.17;;;;;;;19.43;62.87;156357.41;5092466;28;20488;-75
2022/07/27 02:08:16;;;;;;;4.57;4.17;;;;;;;19.42;62.72;156356.09;5055150;28;20519;-76
2022/07/27 02:13:25;;;;;;;5.30;4.80;;;;;;;19.32;63.24;156330.00;5089684;28;20510;-76
2022/07/27 02:15:52;;;;;;;5.63;4.67;;;;;;;19.33;63.38;156332.56;5073147;28;20962;-76
2022/07/27 02:18:18;;;;;;;5.50;5.00;;;;;;;19.28;63.46;156319.53;5073812;28;20584;-76
2022/07/27 02:20:45;;;;;;;5.70;4.00;;;;;;;19.28;63.53;156319.53;5092067;28;20445;-76
2022/07/27 02:23:12;;;;;;;4.60;4.20;;;;;;;19.24;63.97;156309.13;5074774;28;20492;-76
2022/07/27 02:25:39;;;;;;;5.20;4.10;;;;;;;19.24;63.65;156309.13;5093043;28;20547;-75
2022/07/27 02:28:06;;;;;;;5.13;4.63;;;;;;;19.15;64.08;156285.66;5091712;28;20448;-75
2022/07/27 02:30:34;;;;;;;5.13;4.73;;;;;;;19.14;63.59;156283.03;5073173;28;20489;-75
2022/07/27 02:33:01;;;;;;;5.17;4.37;;;;;;;19.12;64.43;156276.53;5090385;28;20441;-75
2022/07/27 02:35:29;;;;;;;4.80;4.40;;;;;;;19.12;64.56;156277.84;5074522;28;20552;-75
2022/07/27 02:37:55;;;;;;;6.80;4.40;;;;;;;19.16;64.36;156288.28;5075287;28;20480;-76
2022/07/27 02:40:22;;;;;;;4.97;4.57;;;;;;;19.08;64.17;156267.44;5091482;28;20540;-76
2022/07/27 02:42:49;;;;;;;5.33;4.40;;;;;;;19.03;64.33;156253.09;5066489;28;20456;-76
2022/07/27 02:45:16;;;;;;;5.20;4.40;;;;;;;18.99;64.65;156243.97;5090133;28;20488;-76
2022/07/27 02:47:44;;;;;;;5.47;5.07;;;;;;;19.00;65.13;156246.59;5057387;28;20453;-75
2022/07/27 02:50:12;;;;;;;6.70;4.50;;;;;;;18.95;64.97;156233.56;5074681;28;20838;-75
2022/07/27 02:52:38;;;;;;;4.97;4.40;;;;;;;18.93;65.37;156228.31;5088460;28;20453;-76
2022/07/27 02:55:06;;;;;;;4.83;4.47;;;;;;;18.93;65.58;156228.31;5074558;28;20465;-75
2022/07/27 02:57:34;;;;;;;4.67;4.27;;;;;;;19.01;65.19;156249.16;5074369;28;20947;-76
2022/07/27 03:00:01;;;;;;;4.90;4.47;;;;;;;19.04;65.31;156256.97;5073664;28;21023;-77
2022/07/27 03:02:28;;;;;;;4.93;4.43;;;;;;;19.05;65.06;156259.59;5071743;28;20939;-77
2022/07/27 03:04:56;;;;;;;5.07;4.67;;;;;;;19.01;65.35;156247.91;5091108;28;20544;-77
2022/07/27 03:07:23;;;;;;;5.30;4.80;;;;;;;18.99;65.07;156242.66;5090232;28;20441;-76
2022/07/27 03:09:50;;;;;;;5.30;4.80;;;;;;;18.95;65.38;156232.25;5091709;28;20459;-76
2022/07/27 03:12:16;;;;;;;6.83;4.60;;;;;;;18.92;65.66;156225.72;5074694;28;20453;-77
2022/07/27 03:14:43;;;;;;;4.20;3.87;;;;;;;18.86;65.52;156210.09;5073531;28;20469;-77
2022/07/27 03:17:10;;;;;;;5.53;4.40;;;;;;;18.84;65.77;156204.88;5071220;28;20994;-77
2022/07/27 03:19:37;;;;;;;5.23;4.73;;;;;;;18.81;66.62;156197.06;5073666;28;20457;-76
2022/07/27 03:22:05;;;;;;;4.80;4.40;;;;;;;18.77;66.69;156186.66;5090753;28;20845;-76
2022/07/27 03:24:32;;;;;;;5.07;4.67;;;;;;;18.76;66.65;156184.03;5088711;28;20544;-76
2022/07/27 03:26:58;;;;;;;5.63;5.10;;;;;;;18.77;66.45;156186.66;5091674;28;20445;-76
2022/07/27 03:29:25;;;;;;;6.80;4.93;;;;;;;18.73;66.44;156177.53;5073122;28;20543;-76
2022/07/27 03:31:52;;;;;;;5.37;4.87;;;;;;;18.72;66.46;156173.59;5088743;28;20492;-76
2022/07/27 03:34:18;;;;;;;4.90;4.50;;;;;;;18.73;65.84;156176.22;5071439;28;20467;-76
2022/07/27 03:36:45;;;;;;;5.27;4.50;;;;;;;18.69;66.02;156165.81;5073139;28;20445;-76
2022/07/27 03:39:13;;;;;;;5.37;4.87;;;;;;;18.65;66.31;156156.66;5072309;28;20457;-76
2022/07/27 03:41:40;;;;;;;5.37;4.70;;;;;;;18.61;66.81;156146.22;5089676;28;20441;-76
2022/07/27 03:44:07;;;;;;;6.30;4.53;;;;;;;18.59;67.03;156141.03;5090609;28;20453;-76
2022/07/27 03:46:33;;;;;;;5.50;4.47;;;;;;;18.52;67.53;156122.81;5089521;28;20981;-76
2022/07/27 03:49:00;;;;;;;5.37;4.87;;;;;;;18.44;67.64;156100.59;5090560;28;20449;-76
2022/07/27 03:51:27;;;;;;;5.27;4.30;;;;;;;18.40;68.02;156090.22;5072614;28;20467;-76
2022/07/27 03:53:54;;;;;;;5.10;4.70;;;;;;;18.39;67.96;156087.59;5072807;28;20475;-76
2022/07/27 03:56:22;;;;;;;6.80;4.90;;;;;;;18.39;68.12;156087.59;5071492;28;20531;-76
2022/07/27 03:58:48;;;;;;;6.20;5.10;;;;;;;18.36;68.34;156079.75;5072594;28;20477;-76
2022/07/27 04:01:15;;;;;;;7.80;5.97;;;;;;;18.31;68.33;156066.75;5071991;28;20487;-76
2022/07/27 04:03:42;;;;;;;7.33;4.47;;;;;;;18.30;68.72;156064.13;5069699;28;20461;-76
2022/07/27 04:06:08;;;;;;;6.43;5.10;;;;;;;18.24;68.69;156051.09;5072799;28;20519;-76
2022/07/27 04:08:35;;;;;;;5.40;4.60;;;;;;;18.27;68.97;156056.34;5071666;28;20511;-76
2022/07/27 04:11:02;;;;;;;5.60;5.03;;;;;;;18.25;69.36;156052.41;5071585;28;20548;-85
2022/07/27 04:13:30;;;;;;;5.37;4.80;;;;;;;18.29;69.37;156061.53;5071087;28;20488;-85
2022/07/27 04:15:57;;;;;;;5.23;4.73;;;;;;;18.29;69.27;156061.53;5089117;28;20552;-85
2022/07/27 04:18:25;;;;;;;5.80;5.20;;;;;;;18.24;69.58;156051.09;5085106;28;20482;-85
2022/07/27 04:20:52;;;;;;;5.90;4.67;;;;;;;18.21;70.01;156042.00;5090974;28;20449;-85
2022/07/27 04:23:18;;;;;;;5.30;4.90;;;;;;;18.17;69.92;156032.88;5088745;28;20453;-86
2022/07/27 04:25:45;;;;;;;6.40;5.57;;;;;;;18.16;70.67;156030.25;5090370;28;20564;-85
2022/07/27 04:28:12;;;;;;;6.27;4.83;;;;;;;18.18;70.70;156035.50;5089295;28;20455;-85
2022/07/27 04:30:40;;;;;;;6.00;5.30;;;;;;;18.12;70.88;156019.88;5090306;28;20932;-85
2022/07/27 04:33:06;;;;;;;5.53;5.03;;;;;;;18.16;70.97;156030.25;5071076;28;20437;-85
2022/07/27 04:35:33;;;;;;;6.20;5.70;;;;;;;18.07;71.41;156006.84;5089331;28;20526;-85
2022/07/27 04:38:01;;;;;;;6.00;5.50;;;;;;;18.14;71.61;156023.75;5090398;28;20909;-85
2022/07/27 04:40:32;;;;;;;5.97;5.37;;;;;;;18.14;71.49;156025.06;5079449;28;20456;-85
2022/07/27 04:42:59;;;;;;;5.50;5.00;;;;;;;18.14;71.71;156025.06;5089441;28;20484;-85
2022/07/27 04:45:25;;;;;;;6.03;5.43;;;;;;;18.16;71.45;156030.25;5055512;28;20529;-85
2022/07/27 04:47:53;;;;;;;6.70;5.53;;;;;;;18.19;71.78;156038.09;5072150;28;20457;-85
2022/07/27 04:50:20;;;;;;;6.20;5.60;;;;;;;18.18;71.44;156035.50;5071464;28;20452;-85
2022/07/27 04:52:47;;;;;;;5.60;5.10;;;;;;;18.22;72.06;156044.59;5089948;28;20510;-85
2022/07/27 04:55:14;;;;;;;6.20;5.60;;;;;;;18.24;72.00;156049.84;5072986;28;20473;-85
2022/07/27 04:57:41;;;;;;;6.10;5.60;;;;;;;18.25;72.22;156052.41;5090192;28;20546;-85
2022/07/27 05:00:09;;;;;;;6.77;6.10;;;;;;;18.22;71.95;156045.91;5051377;28;20484;-85
2022/07/27 05:02:39;;;;;;;6.37;5.83;;;;;;;18.20;72.33;156040.69;5067841;28;20446;-85
2022/07/27 05:05:08;;;;;;;6.97;6.37;;;;;;;18.21;72.27;156042.00;5068612;28;20458;-85
2022/07/27 05:07:35;;;;;;;6.70;5.77;;;;;;;18.25;72.33;156052.41;5043412;28;20559;-85
2022/07/27 05:10:02;;;;;;;6.40;5.80;;;;;;;18.25;72.14;156052.41;5068625;28;20793;-85
2022/07/27 05:12:28;;;;;;;7.00;5.73;;;;;;;18.24;72.52;156051.09;5050118;28;20945;-85
2022/07/27 05:14:55;;;;;;;6.17;5.67;;;;;;;18.24;72.51;156051.09;5070155;28;20546;-85
2022/07/27 05:17:22;;;;;;;5.80;5.40;;;;;;;18.23;72.71;156048.53;5054923;28;20453;-85
2022/07/27 05:19:48;;;;;;;6.30;5.70;;;;;;;18.34;72.22;156074.56;5073788;28;20484;-85
2022/07/27 05:22:17;;;;;;;6.43;5.80;;;;;;;18.40;72.25;156090.22;5073014;28;20457;-85
2022/07/27 05:24:44;;;;;;;6.37;5.77;;;;;;;18.38;72.03;156084.97;5040889;28;20515;-85
2022/07/27 05:27:11;;;;;;;7.10;5.40;;;;;;;18.42;71.71;156096.72;5054694;28;20438;-85
2022/07/27 05:29:38;;;;;;;6.50;5.90;;;;;;;18.46;72.02;156105.81;5074205;28;20996;-85
2022/07/27 05:32:06;;;;;;;6.37;5.60;;;;;;;18.53;71.55;156124.13;5062473;28;20446;-85
2022/07/27 05:34:32;;;;;;;9.60;6.20;;;;;;;18.47;71.56;156108.44;5072211;28;20470;-85
2022/07/27 05:36:59;;;;;;;6.30;5.80;;;;;;;18.51;72.00;156118.88;5072479;28;20545;-84
2022/07/27 05:39:28;;;;;;;6.63;5.97;;;;;;;18.56;71.55;156131.94;5072999;28;20557;-85
2022/07/27 05:41:54;;;;;;;6.40;5.80;;;;;;;18.49;71.78;156114.97;5071891;28;20475;-85
2022/07/27 05:44:21;;;;;;;9.13;6.60;;;;;;;18.43;72.27;156097.97;5037845;28;20462;-84
2022/07/27 05:46:48;;;;;;;8.40;6.00;;;;;;;18.39;72.60;156088.88;5073236;28;20438;-84
2022/07/27 05:49:14;;;;;;;7.23;6.37;;;;;;;18.48;72.32;156111.09;5055003;28;20462;-84
2022/07/27 05:51:41;;;;;;;7.13;6.43;;;;;;;18.42;72.64;156095.41;5072029;28;20545;-84
2022/07/27 05:54:08;;;;;;;6.17;5.67;;;;;;;18.52;72.33;156121.50;5055562;28;20461;-84
2022/07/27 05:56:37;;;;;;;12.33;6.93;;;;;;;18.57;72.03;156135.84;5071201;28;20479;-84
2022/07/27 05:59:04;;;;;;;7.13;6.43;;;;;;;18.53;72.41;156124.13;5081463;28;20503;-84
2022/07/27 06:01:31;;;;;;;6.97;6.27;;;;;;;18.46;72.18;156107.09;5093446;28;20463;-84
2022/07/27 06:03:58;;;;;;;7.80;6.43;;;;;;;18.30;72.94;156064.13;5074556;28;20571;-85
2022/07/27 06:09:09;;;;;;;7.40;6.67;;;;;;;18.34;72.90;156075.88;5091319;28;20752;-86
2022/07/27 06:11:37;;;;;;;9.57;7.27;;;;;;;18.31;73.40;156066.75;5092564;28;20449;-84
2022/07/27 06:14:04;;;;;;;7.63;6.93;;;;;;;18.36;73.48;156079.75;5091728;28;20456;-84
2022/07/27 06:16:31;;;;;;;7.00;6.30;;;;;;;18.29;73.62;156061.53;5092164;28;20469;-85
2022/07/27 06:18:57;;;;;;;7.20;6.60;;;;;;;18.30;73.80;156065.44;5093319;28;20527;-85
2022/07/27 06:21:26;;;;;;;6.60;6.10;;;;;;;18.24;74.02;156051.09;5091925;28;20445;-85
2022/07/27 06:23:53;;;;;;;7.50;6.47;;;;;;;18.18;74.49;156035.50;5091767;28;20829;-85
2022/07/27 06:26:20;;;;;;;9.47;6.20;;;;;;;18.33;74.81;156071.94;5091202;28;20437;-85
2022/07/27 06:28:48;;;;;;;7.73;7.03;;;;;;;18.44;74.03;156100.59;5093062;28;20536;-86
2022/07/27 06:31:15;;;;;;;6.60;6.00;;;;;;;18.42;73.98;156095.41;5076460;28;20437;-86
2022/07/27 06:33:42;;;;;;;7.33;6.67;;;;;;;18.54;73.18;156128.00;5084354;28;20510;-85
2022/07/27 06:36:09;;;;;;;6.90;6.30;;;;;;;18.58;73.60;156137.13;5093318;28;20468;-86
2022/07/27 06:38:36;;;;;;;6.83;6.30;;;;;;;18.68;72.97;156164.50;5077900;28;20441;-85
2022/07/27 06:41:03;;;;;;;8.30;7.50;;;;;;;18.68;72.69;156163.19;5092743;28;20436;-85
2022/07/27 06:43:31;;;;;;;7.77;7.10;;;;;;;18.71;72.93;156171.00;5089776;28;20534;-85
2022/07/27 06:45:59;;;;;;;6.60;6.07;;;;;;;18.77;72.88;156187.91;5091134;28;20473;-86
2022/07/27 06:48:26;;;;;;;8.03;7.23;;;;;;;18.76;72.29;156184.03;5093140;28;20496;-85
2022/07/27 06:50:53;;;;;;;7.07;6.37;;;;;;;18.76;72.73;156184.03;5091315;28;21038;-85
2022/07/27 06:53:20;;;;;;;7.23;6.60;;;;;;;18.85;72.68;156208.78;5090364;28;21014;-85
2022/07/27 06:55:47;;;;;;;6.90;6.20;;;;;;;18.96;71.65;156236.13;5090847;28;20479;-85
2022/07/27 06:58:13;;;;;;;7.97;7.20;;;;;;;19.04;71.03;156255.66;5090022;28;20475;-84
2022/07/27 07:00:40;;;;;;;7.03;6.43;;;;;;;19.05;71.35;156259.59;5073283;28;20473;-85
2022/07/27 07:03:08;;;;;;;7.07;6.47;;;;;;;19.07;71.08;156264.81;5089505;28;20453;-85
2022/07/27 07:05:41;;;;;;;7.27;6.57;;;;;;;19.22;70.13;156302.63;5090859;28;20425;-85
2022/07/27 07:08:10;;;;;;;7.87;6.90;;;;;;;19.23;70.63;156305.19;5091576;28;20492;-85
2022/07/27 07:10:37;;;;;;;6.90;6.30;;;;;;;19.35;70.28;156336.50;5091741;28;20441;-84
2022/07/27 07:13:06;;;;;;;7.07;6.37;;;;;;;19.56;69.75;156391.31;5091033;28;20436;-85
2022/07/27 07:15:33;;;;;;;8.07;7.37;;;;;;;19.74;67.95;156438.22;5091111;28;20455;-85
2022/07/27 07:18:01;;;;;;;7.13;6.40;;;;;;;19.84;68.64;156464.31;5074289;28;20436;-85
2022/07/27 07:20:30;;;;;;;7.20;6.50;;;;;;;19.85;68.13;156465.63;5092093;28;20445;-85
2022/07/27 07:22:56;;;;;;;7.00;6.03;;;;;;;19.82;68.36;156459.09;5087568;28;20449;-85
2022/07/27 07:25:23;;;;;;;7.30;6.27;;;;;;;19.75;68.57;156439.56;5091375;28;20453;-85
2022/07/27 07:27:51;;;;;;;7.33;6.63;;;;;;;19.91;68.25;156481.22;5091479;28;20858;-85
2022/07/27 07:30:18;;;;;;;6.77;5.90;;;;;;;19.88;68.71;156474.69;5089498;28;20938;-85
2022/07/27 07:32:45;;;;;;;7.57;6.17;;;;;;;19.91;67.77;156481.22;5066850;28;20520;-85
2022/07/27 07:35:12;;;;;;;7.00;6.30;;;;;;;20.01;67.85;156507.34;5084568;28;20501;-84
2022/07/27 07:37:40;;;;;;;7.63;6.77;;;;;;;20.13;67.87;156538.63;5089512;28;21006;-85
2022/07/27 07:40:09;;;;;;;8.47;7.60;;;;;;;20.11;67.61;156533.41;5068915;28;20484;-85
2022/07/27 07:42:51;;;;;;;9.87;6.70;;;;;;;20.25;67.56;156570.00;5087422;28;20459;-85
2022/07/27 07:45:18;;;;;;;8.80;7.00;;;;;;;20.51;67.11;156637.81;5086754;28;20441;-85
2022/07/27 07:47:44;;;;;;;7.53;6.83;;;;;;;20.54;66.17;156645.59;5090664;28;20452;-84
2022/07/27 07:50:11;;;;;;;8.27;7.47;;;;;;;20.26;66.26;156572.56;5091914;28;20528;-85
2022/07/27 07:52:40;;;;;;;7.50;6.27;;;;;;;20.36;66.87;156598.66;5089184;28;20442;-76
2022/07/27 07:55:07;;;;;;;9.53;7.40;;;;;;;20.47;66.12;156626.03;5090314;28;20457;-76
2022/07/27 07:57:34;;;;;;;6.80;6.20;;;;;;;20.48;66.30;156629.97;5087098;28;20453;-76
2022/07/27 08:00:00;;;;;;;6.80;6.10;;;;;;;20.71;65.30;156688.66;5107062;28;20525;-77
2022/07/27 08:02:27;;;;;;;7.43;6.73;;;;;;;20.79;64.71;156708.22;5089190;28;20591;-76
2022/07/27 08:04:54;;;;;;;7.40;6.30;;;;;;;20.83;64.70;156718.69;5090399;28;20441;-75
2022/07/27 08:07:21;;;;;;;7.57;6.90;;;;;;;20.64;64.80;156670.41;5086405;28;20470;-76
2022/07/27 08:09:49;;;;;;;6.53;5.93;;;;;;;20.57;65.76;156653.44;5071771;28;20461;-76
2022/07/27 08:12:17;;;;;;;7.30;6.60;;;;;;;20.77;65.20;156704.34;5088979;28;20468;-76
2022/07/27 08:14:44;;;;;;;7.27;6.60;;;;;;;20.72;65.70;156689.97;5089589;28;20939;-76
2022/07/27 08:17:10;;;;;;;7.40;6.80;;;;;;;20.64;65.13;156671.72;5076549;28;20502;-76
2022/07/27 08:19:37;;;;;;;8.40;7.20;;;;;;;20.61;65.22;156662.59;5083247;28;20457;-76
2022/07/27 08:22:04;;;;;;;7.07;6.20;;;;;;;20.58;65.84;156656.06;5089481;28;20453;-76
2022/07/27 08:24:31;;;;;;;7.03;6.33;;;;;;;20.76;64.93;156700.44;5106019;28;20449;-76
2022/07/27 08:26:59;;;;;;;6.70;6.10;;;;;;;20.82;65.10;156716.06;5095841;28;20438;-76
2022/07/27 08:29:25;;;;;;;7.53;6.67;;;;;;;20.70;65.16;156686.09;5089862;28;20818;-75
2022/07/27 08:31:52;;;;;;;6.10;5.50;;;;;;;20.71;65.49;156687.34;5085806;28;20858;-76
2022/07/27 08:34:19;;;;;;;6.60;6.10;;;;;;;20.92;64.46;156742.16;5089174;28;20537;-75
2022/07/27 08:36:46;;;;;;;7.13;6.43;;;;;;;20.94;64.17;156747.41;5088198;28;20997;-84
2022/07/27 08:39:13;;;;;;;8.10;6.10;;;;;;;21.17;64.09;156807.47;5105287;28;20507;-84
2022/07/27 08:41:41;;;;;;;8.47;7.10;;;;;;;21.16;63.30;156804.84;5107491;28;20505;-83
2022/07/27 08:44:13;;;;;;;6.63;5.90;;;;;;;21.30;63.65;156841.41;5101085;28;20452;-84
2022/07/27 08:46:40;;;;;;;7.13;6.47;;;;;;;21.51;63.15;156896.22;5088943;28;20437;-84
2022/07/27 08:49:17;;;;;;;6.70;6.20;;;;;;;21.62;61.66;156924.97;5105394;28;20449;-83
2022/07/27 08:51:56;;;;;;;9.53;6.30;;;;;;;21.77;61.05;156964.09;5076093;28;20450;-84
2022/07/27 08:54:24;;;;;;;7.37;6.27;;;;;;;21.85;60.77;156985.00;5092586;28;21044;-84
2022/07/27 08:56:53;;;;;;;7.03;6.43;;;;;;;21.98;60.31;157016.38;5095632;28;20568;-77
2022/07/27 08:59:21;;;;;;;7.20;6.60;;;;;;;22.14;59.91;157058.16;5112004;28;20530;-77
2022/07/27 09:01:49;;;;;;;7.40;6.80;;;;;;;22.43;59.47;157135.22;5097993;28;20485;-77
2022/07/27 09:04:15;;;;;;;6.50;6.00;;;;;;;22.82;58.29;157234.59;5093241;28;20547;-84
2022/07/27 09:06:44;;;;;;;9.27;6.97;;;;;;;22.72;57.42;157209.72;5092944;28;20468;-84
2022/07/27 09:09:12;;;;;;;9.50;5.90;;;;;;;22.74;57.72;157213.69;5093356;28;20441;-84
2022/07/27 09:11:39;;;;;;;6.67;6.07;;;;;;;22.98;57.81;157277.66;5089717;28;20480;-84
2022/07/27 09:14:08;;;;;;;7.30;6.60;;;;;;;23.03;56.50;157290.72;5093666;28;20509;-84
2022/07/27 09:16:37;;;;;;;8.30;5.93;;;;;;;23.09;56.51;157303.84;5086242;28;20472;-84
2022/07/27 09:19:06;;;;;;;12.33;6.90;;;;;;;22.98;57.03;157276.41;5098654;28;20515;-84
2022/07/27 09:21:39;;;;;;;6.70;6.10;;;;;;;23.25;57.17;157346.94;5088601;28;21168;-84
2022/07/27 09:24:07;;;;;;;6.50;5.90;;;;;;;23.48;55.64;157407.09;5111177;27;20502;-84
2022/07/27 09:26:35;;;;;;;7.53;6.83;;;;;;;23.11;56.20;157310.38;5090492;28;20460;-84
2022/07/27 09:29:04;;;;;;;6.40;5.80;;;;;;;22.93;57.44;157264.59;5103805;28;21024;-84
2022/07/27 09:31:31;;;;;;;6.90;6.23;;;;;;;22.59;57.26;157175.72;5089057;28;20993;-84
2022/07/27 09:34:01;;;;;;;7.33;6.43;;;;;;;22.48;57.71;157145.69;5088644;28;20453;-84
2022/07/27 09:36:29;;;;;;;7.30;6.60;;;;;;;22.69;56.80;157201.88;5105822;28;20851;-84
2022/07/27 09:38:58;;;;;;;6.60;6.00;;;;;;;22.70;56.35;157204.50;5089480;28;20455;-84
2022/07/27 09:41:25;;;;;;;7.10;6.50;;;;;;;22.89;57.07;157254.16;5092256;28;20544;-84
2022/07/27 09:43:53;;;;;;;6.87;6.23;;;;;;;23.03;56.94;157290.72;5092488;28;20464;-84
2022/07/27 09:46:29;;;;;;;6.97;6.37;;;;;;;23.03;56.96;157290.72;5094427;28;20417;-84
2022/07/27 09:48:56;;;;;;;6.27;5.67;;;;;;;23.16;56.84;157323.44;5090294;28;20877;-84
2022/07/27 09:51:25;;;;;;;7.10;6.40;;;;;;;23.14;56.20;157316.91;5127513;27;20907;-84
2022/07/27 09:53:52;;;;;;;7.90;7.20;;;;;;;22.77;56.98;157222.78;5071282;28;20466;-84
2022/07/27 09:56:25;;;;;;;6.80;5.90;;;;;;;22.60;58.51;157178.34;5100939;28;20469;-84
2022/07/27 09:58:55;;;;;;;8.30;6.90;;;;;;;22.71;57.58;157205.84;5087535;28;20992;-84
2022/07/27 10:01:23;;;;;;;8.77;6.30;;;;;;;22.72;57.77;157209.72;5091354;28;20958;-84
2022/07/27 10:03:52;;;;;;;7.20;6.40;;;;;;;22.53;57.74;157158.75;5090918;28;20449;-84
2022/07/27 10:06:19;;;;;;;7.83;6.30;;;;;;;22.62;58.17;157183.56;5091252;28;20825;-84
2022/07/27 10:08:49;;;;;;;6.47;5.93;;;;;;;22.83;57.41;157237.16;5093904;28;20851;-84
2022/07/27 10:11:17;;;;;;;6.53;5.93;;;;;;;22.88;57.82;157250.22;5091945;28;20437;-84
2022/07/27 10:13:44;;;;;;;8.10;6.57;;;;;;;23.11;57.14;157309.06;5089576;28;20446;-84
2022/07/27 10:16:18;;;;;;;6.87;5.90;;;;;;;23.37;56.98;157378.38;5091218;28;20866;-84
2022/07/27 10:18:58;;;;;;;5.90;5.40;;;;;;;23.43;55.36;157392.75;5088523;28;20662;-84
2022/07/27 10:21:26;;;;;;;6.50;5.90;;;;;;;23.15;55.19;157319.47;5091034;28;20449;-84
2022/07/27 10:23:56;;;;;;;6.73;6.13;;;;;;;23.09;56.16;157303.84;5092987;28;20449;-85
2022/07/27 10:26:30;;;;;;;7.77;7.07;;;;;;;22.94;56.87;157265.91;5092179;28;20452;-85
2022/07/27 10:28:59;;;;;;;8.10;7.40;;;;;;;22.77;56.85;157222.78;5075343;28;20452;-85
2022/07/27 10:31:27;;;;;;;7.43;6.30;;;;;;;22.74;58.17;157214.94;5091867;28;20437;-85
2022/07/27 10:33:55;;;;;;;6.73;6.13;;;;;;;22.78;57.22;157225.41;5090357;28;20454;-85
2022/07/27 10:36:45;;;;;;;6.67;6.07;;;;;;;22.64;57.84;157188.81;5092715;28;20460;-85
2022/07/27 10:39:26;;;;;;;6.90;6.20;;;;;;;22.77;57.47;157221.53;5107979;28;20483;-85
2022/07/27 10:41:53;;;;;;;7.10;6.50;;;;;;;22.82;57.85;157235.84;5092674;28;20777;-85
2022/07/27 10:44:30;;;;;;;7.00;6.40;;;;;;;23.19;56.72;157329.97;5091341;28;20452;-85
2022/07/27 10:46:59;;;;;;;6.23;5.73;;;;;;;23.28;56.77;157354.78;5091030;28;20930;-85
2022/07/27 10:49:27;;;;;;;9.83;6.00;;;;;;;23.46;55.60;157401.88;5091756;28;20459;-85
2022/07/27 10:51:55;;;;;;;6.33;5.83;;;;;;;23.64;54.21;157448.91;5093756;28;20516;-84
2022/07/27 10:54:26;;;;;;;6.80;6.20;;;;;;;23.37;54.26;157377.06;5090438;28;20495;-85
2022/07/27 10:56:54;;;;;;;6.80;6.07;;;;;;;23.06;55.49;157296.00;5100921;28;20506;-85
2022/07/27 10:59:49;;;;;;;7.37;6.73;;;;;;;23.11;54.96;157310.38;5072050;28;20529;-85
2022/07/27 11:02:17;;;;;;;6.30;5.80;;;;;;;23.00;53.96;157281.63;5091504;28;20948;-85
2022/07/27 11:04:46;;;;;;;6.10;5.53;;;;;;;23.15;53.73;157319.47;5088561;28;20814;-85
2022/07/27 11:07:16;;;;;;;7.00;6.40;;;;;;;23.25;53.55;157346.94;5096858;28;20481;-85
2022/07/27 11:09:45;;;;;;;7.07;5.70;;;;;;;23.04;53.08;157293.34;5093569;28;20441;-85
2022/07/27 11:12:12;;;;;;;5.80;5.30;;;;;;;23.07;53.10;157298.56;5074863;28;20449;-85
2022/07/27 11:14:47;;;;;;;8.50;5.20;;;;;;;23.16;52.71;157322.13;5097044;28;20498;-84
2022/07/27 11:17:15;;;;;;;5.97;5.47;;;;;;;23.45;52.31;157397.97;5106270;28;20563;-84
2022/07/27 11:19:41;;;;;;;7.37;6.67;;;;;;;23.32;53.24;157363.94;5091281;28;20452;-84
2022/07/27 11:22:08;;;;;;;5.90;5.40;;;;;;;23.44;52.49;157395.34;5089613;28;20445;-84
2022/07/27 11:24:35;;;;;;;5.40;4.90;;;;;;;23.61;50.82;157439.81;5091069;28;20457;-85
2022/07/27 11:27:04;;;;;;;5.00;4.60;;;;;;;23.63;51.30;157445.03;5092615;28;20456;-84
2022/07/27 11:29:34;;;;;;;5.07;4.67;;;;;;;23.83;50.61;157496.03;5078344;28;20490;-84
2022/07/27 11:32:01;;;;;;;6.60;5.60;;;;;;;23.76;50.65;157479.00;5085664;28;20429;-85
2022/07/27 11:34:29;;;;;;;5.07;4.57;;;;;;;23.60;48.64;157438.50;5091441;28;20452;-86